Time,TemperatureF,DewpointF,PressureIn,WindDirection,WindDirectionDegrees,WindSpeedMPH,WindSpeedGustMPH,Humidity,HourlyPrecipIn,Conditions,Clouds,dailyrainin,SoftwareType,DateUTC
2013-01-31 07:00:00,59.0,32.0,30.27,SSE,150,9.0,9.0,36,-99.99,,,-99.99,,2013-01-31 13:00:00,
2013-01-31 08:00:00,60.0,35.0,30.29,South,170,7.0,8.0,39,-99.99,,,-99.99,,2013-01-31 14:00:00,
2013-01-31 08:21:00,60.0,35.0,30.29,South,170,7.0,8.0,39,-99.99,,,-99.99,,2013-01-31 14:21:00,
2013-01-31 08:31:00,60.0,35.0,30.29,South,170,7.0,8.0,39,-99.99,,,-99.99,,2013-01-31 14:31:00,
2013-01-31 08:41:00,60.0,35.0,30.29,South,170,7.0,8.0,39,-99.99,,,-99.99,,2013-01-31 14:41:00,
2013-01-31 08:52:00,60.0,35.0,30.29,South,170,7.0,8.0,39,-99.99,,,-99.99,,2013-01-31 14:52:00,
2013-01-31 09:00:00,57.0,39.0,30.32,WSW,240,5.0,5.0,50,-99.99,,,-99.99,,2013-01-31 15:00:00,
2013-01-31 09:21:00,57.0,39.0,30.32,WSW,240,5.0,5.0,50,-99.99,,,-99.99,,2013-01-31 15:21:00,
2013-01-31 09:31:00,57.0,39.0,30.32,WSW,240,5.0,5.0,50,-99.99,,,-99.99,,2013-01-31 15:31:00,
2013-01-31 09:42:00,57.0,39.0,30.32,WSW,240,5.0,5.0,50,-99.99,,,-99.99,,2013-01-31 15:42:00,
2013-01-31 09:51:00,57.0,39.0,30.32,WSW,240,5.0,5.0,50,-99.99,,,-99.99,,2013-01-31 15:51:00,
2013-01-31 10:00:00,60.0,44.0,30.34,SW,220,3.0,5.0,55,-99.99,,,-99.99,,2013-01-31 16:00:00,
2013-01-31 10:21:00,60.0,44.0,30.34,SW,220,3.0,5.0,55,-99.99,,,-99.99,,2013-01-31 16:21:00,
2013-01-31 10:41:00,60.0,44.0,30.34,SW,220,3.0,5.0,55,-99.99,,,-99.99,,2013-01-31 16:41:00,
2013-01-31 10:51:00,60.0,44.0,30.34,SW,220,3.0,5.0,55,-99.99,,,-99.99,,2013-01-31 16:51:00,
2013-01-31 11:00:00,60.0,39.0,30.34,South,190,7.0,7.0,45,-99.99,,,-99.99,,2013-01-31 17:00:00,
2013-01-31 11:22:00,60.0,39.0,30.34,South,190,7.0,7.0,45,-99.99,,,-99.99,,2013-01-31 17:22:00,
2013-01-31 11:31:00,60.0,39.0,30.34,South,190,7.0,7.0,45,-99.99,,,-99.99,,2013-01-31 17:31:00,
2013-01-31 11:42:00,60.0,39.0,30.34,South,190,7.0,7.0,45,-99.99,,,-99.99,,2013-01-31 17:42:00,
2013-01-31 11:53:00,60.0,39.0,30.34,South,190,7.0,7.0,45,-99.99,,,-99.99,,2013-01-31 17:53:00,
2013-01-31 12:21:00,61.0,41.0,30.34,South,180,7.0,8.0,46,-99.99,,,-99.99,,2013-01-31 18:21:00,
2013-01-31 12:31:00,61.0,41.0,30.34,South,180,7.0,8.0,46,-99.99,,,-99.99,,2013-01-31 18:31:00,
2013-01-31 13:21:00,61.0,36.0,30.32,South,180,7.0,7.0,38,-99.99,,,-99.99,,2013-01-31 19:21:00,
2013-01-31 13:31:00,61.0,36.0,30.32,South,180,7.0,7.0,38,-99.99,,,-99.99,,2013-01-31 19:31:00,
2013-01-31 13:42:00,61.0,36.0,30.32,South,180,7.0,7.0,38,-99.99,,,-99.99,,2013-01-31 19:42:00,
2013-01-31 13:51:00,61.0,36.0,30.32,South,180,7.0,7.0,38,-99.99,,,-99.99,,2013-01-31 19:51:00,
2013-01-31 14:00:00,61.0,38.0,30.29,SSE,160,5.0,6.0,41,-99.99,,,-99.99,,2013-01-31 20:00:00,
2013-01-31 14:21:00,61.0,38.0,30.29,SSE,160,5.0,6.0,41,-99.99,,,-99.99,,2013-01-31 20:21:00,
2013-01-31 14:31:00,61.0,38.0,30.29,SSE,160,5.0,6.0,41,-99.99,,,-99.99,,2013-01-31 20:31:00,
2013-01-31 14:41:00,61.0,38.0,30.29,SSE,160,5.0,6.0,41,-99.99,,,-99.99,,2013-01-31 20:41:00,
2013-01-31 14:51:00,61.0,38.0,30.29,SSE,160,5.0,6.0,41,-99.99,,,-99.99,,2013-01-31 20:51:00,
2013-01-31 15:00:00,61.0,41.0,30.26,SE,140,8.0,9.0,47,-99.99,,,-99.99,,2013-01-31 21:00:00,
2013-01-31 15:21:00,61.0,41.0,30.26,SE,140,8.0,9.0,47,-99.99,,,-99.99,,2013-01-31 21:21:00,
2013-01-31 15:31:00,61.0,41.0,30.26,SE,140,8.0,9.0,47,-99.99,,,-99.99,,2013-01-31 21:31:00,
2013-01-31 15:42:00,61.0,41.0,30.26,SE,140,8.0,9.0,47,-99.99,,,-99.99,,2013-01-31 21:42:00,
2013-01-31 15:51:00,61.0,41.0,30.26,SE,140,8.0,9.0,47,-99.99,,,-99.99,,2013-01-31 21:51:00,
2013-01-31 16:00:00,61.0,42.0,30.25,SSE,150,9.0,11.0,48,-99.99,,,-99.99,,2013-01-31 22:00:00,
2013-01-31 16:21:00,61.0,42.0,30.25,SSE,150,9.0,11.0,48,-99.99,,,-99.99,,2013-01-31 22:21:00,
2013-01-31 16:32:00,61.0,42.0,30.25,SSE,150,9.0,11.0,48,-99.99,,,-99.99,,2013-01-31 22:32:00,
2013-01-31 16:41:00,61.0,42.0,30.25,SSE,150,9.0,11.0,48,-99.99,,,-99.99,,2013-01-31 22:41:00,
2013-01-31 16:51:00,61.0,42.0,30.25,SSE,150,9.0,11.0,48,-99.99,,,-99.99,,2013-01-31 22:51:00,
2013-01-31 17:00:00,61.0,45.0,30.25,SE,140,11.0,13.0,55,-99.99,,,-99.99,,2013-01-31 23:00:00,
2013-01-31 17:21:00,61.0,45.0,30.25,SE,140,11.0,13.0,55,-99.99,,,-99.99,,2013-01-31 23:21:00,
2013-01-31 17:31:00,61.0,45.0,30.25,SE,140,11.0,13.0,55,-99.99,,,-99.99,,2013-01-31 23:31:00,
2013-01-31 17:41:00,61.0,45.0,30.25,SE,140,11.0,13.0,55,-99.99,,,-99.99,,2013-01-31 23:41:00,
2013-01-31 17:52:00,61.0,45.0,30.25,SE,140,11.0,13.0,55,-99.99,,,-99.99,,2013-01-31 23:52:00,
2013-01-31 18:00:00,61.0,47.0,30.24,ESE,120,10.0,11.0,59,-99.99,,,-99.99,,2013-02-01 00:00:00,
2013-01-31 18:21:00,61.0,47.0,30.24,ESE,120,10.0,11.0,59,-99.99,,,-99.99,,2013-02-01 00:21:00,
2013-01-31 18:31:00,61.0,47.0,30.24,ESE,120,10.0,11.0,59,-99.99,,,-99.99,,2013-02-01 00:31:00,
2013-01-31 18:41:00,61.0,47.0,30.24,ESE,120,10.0,11.0,59,-99.99,,,-99.99,,2013-02-01 00:41:00,
2013-01-31 18:51:00,61.0,47.0,30.24,ESE,120,10.0,11.0,59,-99.99,,,-99.99,,2013-02-01 00:51:00,
2013-01-31 19:00:00,61.0,46.0,30.24,SE,130,10.0,13.0,57,-99.99,,,-99.99,,2013-02-01 01:00:00,
2013-01-31 19:21:00,61.0,46.0,30.24,SE,130,10.0,13.0,57,-99.99,,,-99.99,,2013-02-01 01:21:00,
2013-01-31 19:31:00,61.0,46.0,30.24,SE,130,10.0,13.0,57,-99.99,,,-99.99,,2013-02-01 01:31:00,
2013-01-31 19:41:00,61.0,46.0,30.24,SE,130,10.0,13.0,57,-99.99,,,-99.99,,2013-02-01 01:41:00,
2013-01-31 19:51:00,61.0,46.0,30.24,SE,130,10.0,13.0,57,-99.99,,,-99.99,,2013-02-01 01:51:00,
2013-01-31 20:00:00,61.0,45.0,30.27,SE,130,11.0,13.0,55,-99.99,,,-99.99,,2013-02-01 02:00:00,
2013-01-31 20:21:00,61.0,45.0,30.27,SE,130,11.0,13.0,55,-99.99,,,-99.99,,2013-02-01 02:21:00,
2013-01-31 20:31:00,61.0,45.0,30.27,SE,130,11.0,13.0,55,-99.99,,,-99.99,,2013-02-01 02:31:00,
2013-01-31 20:41:00,61.0,45.0,30.27,SE,130,11.0,13.0,55,-99.99,,,-99.99,,2013-02-01 02:41:00,
2013-01-31 20:52:00,61.0,45.0,30.27,SE,130,11.0,13.0,55,-99.99,,,-99.99,,2013-02-01 02:52:00,
2013-01-31 21:00:00,61.0,48.0,30.29,ESE,120,9.0,10.0,61,-99.99,,,-99.99,,2013-02-01 03:00:00,
2013-01-31 21:21:00,61.0,48.0,30.29,ESE,120,9.0,10.0,61,-99.99,,,-99.99,,2013-02-01 03:21:00,
2013-01-31 21:32:00,61.0,48.0,30.29,ESE,120,9.0,10.0,61,-99.99,,,-99.99,,2013-02-01 03:32:00,
2013-01-31 21:41:00,61.0,48.0,30.29,ESE,120,9.0,10.0,61,-99.99,,,-99.99,,2013-02-01 03:41:00,
2013-01-31 21:51:00,61.0,48.0,30.29,ESE,120,9.0,10.0,61,-99.99,,,-99.99,,2013-02-01 03:51:00,
2013-01-31 22:00:00,61.0,49.0,30.30,SSE,150,9.0,10.0,65,-99.99,,,-99.99,,2013-02-01 04:00:00,
2013-01-31 22:21:00,61.0,49.0,30.30,SSE,150,9.0,10.0,65,-99.99,,,-99.99,,2013-02-01 04:21:00,
2013-01-31 22:31:00,61.0,49.0,30.30,SSE,150,9.0,10.0,65,-99.99,,,-99.99,,2013-02-01 04:31:00,
2013-01-31 22:41:00,61.0,49.0,30.30,SSE,150,9.0,10.0,65,-99.99,,,-99.99,,2013-02-01 04:41:00,
2013-01-31 22:51:00,61.0,49.0,30.30,SSE,150,9.0,10.0,65,-99.99,,,-99.99,,2013-02-01 04:51:00,
2013-01-31 23:00:00,61.0,50.0,30.30,SSE,150,8.0,9.0,68,-99.99,,,-99.99,,2013-02-01 05:00:00,
2013-01-31 23:22:00,61.0,50.0,30.30,SSE,150,8.0,9.0,68,-99.99,,,-99.99,,2013-02-01 05:22:00,
2013-01-31 23:31:00,61.0,50.0,30.30,SSE,150,8.0,9.0,68,-99.99,,,-99.99,,2013-02-01 05:31:00,
2013-01-31 23:41:00,61.0,50.0,30.30,SSE,150,8.0,9.0,68,-99.99,,,-99.99,,2013-02-01 05:41:00,
2013-01-31 23:51:00,61.0,50.0,30.30,SSE,150,8.0,9.0,68,-99.99,,,-99.99,,2013-02-01 05:51:00,